Time;durP1;ratioP1;P1;durP2;ratioP2;P2;SDS_P1;SDS_P2;PMS_P1;PMS_P2;Temp;Humidity;BMP_temperature;BMP_pressure;BME280_temperature;BME280_humidity;BME280_pressure;Samples;Min_cycle;Max_cycle;Signal;HPM_P1;HPM_P2
2021/06/23 00:06:58;;;;;;;17.17;15.37;;;;;;;19.60;76.37;99252.80;531019;1089;166571;-67
2021/06/23 00:17:05;;;;;;;20.37;18.27;;;;;;;19.66;77.09;99265.47;531049;1092;118015;-67
2021/06/23 00:27:11;;;;;;;21.00;16.83;;;;;;;19.53;77.01;99267.78;530282;1092;115858;-65
2021/06/23 00:37:18;;;;;;;20.13;18.10;;;;;;;19.43;77.78;99276.75;531013;1092;116430;-68
2021/06/23 00:47:27;;;;;;;17.13;15.37;;;;;;;19.28;77.75;99289.04;523565;1092;116461;-67
2021/06/23 00:57:35;;;;;;;19.53;17.53;;;;;;;19.20;78.61;99295.15;512158;1093;116973;-67
2021/06/23 01:07:41;;;;;;;20.48;18.03;;;;;;;19.25;79.06;99292.85;531016;1092;115895;-66
2021/06/23 01:17:51;;;;;;;23.60;21.20;;;;;;;19.28;79.21;99300.50;526776;1092;117273;-67
2021/06/23 01:27:58;;;;;;;26.60;20.40;;;;;;;19.40;79.37;99310.84;530991;1092;116346;-68
2021/06/23 01:38:06;;;;;;;21.97;19.67;;;;;;;19.45;79.33;99316.53;525840;1092;116261;-67
2021/06/23 01:48:15;;;;;;;24.48;21.88;;;;;;;19.53;79.09;99343.16;530224;1092;116423;-67
2021/06/23 01:58:24;;;;;;;24.60;22.10;;;;;;;19.55;79.26;99354.47;530926;1091;117449;-67
2021/06/23 02:08:59;;;;;;;24.30;21.80;;;;;;;19.64;78.88;99354.50;530984;1092;116691;-67
2021/06/23 02:19:07;;;;;;;24.53;21.90;;;;;;;19.67;78.80;99378.14;530949;1093;116387;-67
2021/06/23 02:29:14;;;;;;;22.23;19.93;;;;;;;19.61;78.59;99384.95;522762;1091;116612;-67
2021/06/23 02:39:20;;;;;;;29.33;25.37;;;;;;;19.53;78.86;99399.08;530355;1093;116619;-67
2021/06/23 02:49:27;;;;;;;30.83;25.70;;;;;;;19.57;78.60;99405.77;521892;1092;116178;-67
2021/06/23 02:59:35;;;;;;;33.07;27.70;;;;;;;19.65;78.71;99404.11;513021;1092;116356;-68
2021/06/23 03:09:43;;;;;;;32.85;27.30;;;;;;;19.79;78.50;99398.14;515244;1092;115890;-67
2021/06/23 03:19:50;;;;;;;32.70;27.93;;;;;;;19.66;78.56;99408.44;530926;1092;116705;-67
2021/06/23 03:29:56;;;;;;;36.17;29.33;;;;;;;19.50;79.02;99427.84;526810;1091;116213;-66
2021/06/23 03:40:03;;;;;;;35.50;26.28;;;;;;;19.56;78.98;99444.02;519469;1091;116808;-67
2021/06/23 03:50:12;;;;;;;34.53;26.83;;;;;;;19.38;79.25;99451.27;531052;1091;117274;-67
2021/06/23 04:00:21;;;;;;;33.13;27.47;;;;;;;19.25;79.71;99449.88;530284;1092;116186;-68
2021/06/23 04:10:28;;;;;;;32.63;28.53;;;;;;;19.42;79.60;99433.98;530916;1091;115950;-67
2021/06/23 04:20:35;;;;;;;29.87;25.47;;;;;;;19.62;79.45;99450.53;531021;1091;116449;-67
2021/06/23 04:30:41;;;;;;;32.63;25.17;;;;;;;19.69;79.37;99482.70;530888;1093;172796;-67
2021/06/23 04:40:48;;;;;;;33.37;26.03;;;;;;;19.85;78.80;99487.23;530967;1092;116320;-66
2021/06/23 04:50:54;;;;;;;27.83;23.30;;;;;;;19.96;78.88;99496.81;530264;1090;116760;-68
2021/06/23 05:01:01;;;;;;;26.00;22.17;;;;;;;20.06;78.54;99510.83;532388;1089;116086;-67
2021/06/23 05:11:08;;;;;;;28.53;23.47;;;;;;;20.25;78.30;99519.52;532505;1088;117246;-68
2021/06/23 05:21:14;;;;;;;27.27;24.53;;;;;;;20.26;77.95;99521.22;526984;1090;119417;-67
2021/06/23 05:31:21;;;;;;;27.07;24.20;;;;;;;20.54;77.03;99537.73;531066;1090;117052;-67
2021/06/23 05:41:28;;;;;;;33.47;24.40;;;;;;;20.53;76.64;99552.08;527378;1089;117233;-67
2021/06/23 05:51:35;;;;;;;35.00;24.00;;;;;;;20.65;76.65;99567.76;530343;1090;116647;-68
2021/06/23 06:01:41;;;;;;;28.03;22.73;;;;;;;20.74;76.62;99549.95;527047;1089;116967;-68
2021/06/23 06:11:49;;;;;;;26.93;22.67;;;;;;;20.58;76.54;99563.10;531621;1088;116116;-65
2021/06/23 06:21:55;;;;;;;26.93;23.13;;;;;;;21.01;76.10;99543.48;532323;1089;116150;-67
2021/06/23 06:32:01;;;;;;;27.13;21.80;;;;;;;21.18;75.31;99564.81;532514;1089;116202;-67
2021/06/23 06:42:09;;;;;;;24.97;20.43;;;;;;;21.20;75.20;99570.81;531160;1089;116626;-65
2021/06/23 06:52:16;;;;;;;23.68;20.50;;;;;;;21.15;75.27;99606.02;522891;1089;116706;-64
2021/06/23 07:02:23;;;;;;;22.67;18.70;;;;;;;21.33;74.94;99610.36;532261;1088;170206;-57
2021/06/23 07:12:29;;;;;;;22.47;19.37;;;;;;;21.28;74.14;99614.36;515179;1089;116182;-58
2021/06/23 07:22:36;;;;;;;56.23;24.23;;;;;;;21.38;74.23;99627.55;532456;1089;116414;-58
2021/06/23 07:32:48;;;;;;;34.53;20.17;;;;;;;21.64;73.90;99633.67;531738;1089;116692;-54
2021/06/23 07:42:54;;;;;;;22.70;19.47;;;;;;;21.88;72.71;99650.73;532522;1090;116345;-56
2021/06/23 07:53:07;;;;;;;24.83;19.93;;;;;;;22.30;71.82;99646.07;532476;1090;117148;-54
2021/06/23 08:13:37;;;;;;;21.10;17.73;;;;;;;23.28;69.22;99638.47;532482;1090;116370;-57
2021/06/23 08:23:44;;;;;;;22.60;17.97;;;;;;;23.37;68.29;99632.03;531744;1088;117188;-56
2021/06/23 08:33:53;;;;;;;20.53;18.30;;;;;;;23.93;67.36;99643.36;532462;1089;117094;-68
2021/06/23 08:44:01;;;;;;;25.77;20.30;;;;;;;24.80;66.06;99659.78;531817;1089;116904;-68
2021/06/23 08:54:07;;;;;;;22.77;19.27;;;;;;;24.89;64.30;99677.44;530308;1090;116619;-64
2021/06/23 09:04:15;;;;;;;20.90;18.80;;;;;;;24.71;63.74;99691.25;531195;1089;116752;-64
2021/06/23 09:14:26;;;;;;;27.43;20.07;;;;;;;25.03;62.90;99705.24;526483;1089;116095;-65
2021/06/23 09:24:42;;;;;;;20.98;18.68;;;;;;;26.06;62.71;99702.41;526097;1089;116401;-63
2021/06/23 09:34:53;;;;;;;20.77;18.23;;;;;;;26.71;60.31;99691.33;532518;1088;116830;-76
2021/06/23 09:45:09;;;;;;;20.47;18.40;;;;;;;27.71;58.82;99686.33;531708;1088;117557;-67
2021/06/23 09:55:15;;;;;;;16.13;14.73;;;;;;;27.14;56.89;99698.33;532538;1089;116493;-61
2021/06/23 10:05:29;;;;;;;15.47;13.97;;;;;;;25.27;59.32;99711.26;532515;1090;116614;-65
2021/06/23 10:15:36;;;;;;;15.47;14.03;;;;;;;24.29;61.42;99712.38;531391;1089;116566;-59
2021/06/23 10:25:46;;;;;;;20.77;15.43;;;;;;;23.96;62.30;99718.09;531920;1090;117092;-65
2021/06/23 10:35:53;;;;;;;24.88;14.28;;;;;;;24.37;61.92;99707.95;531725;1088;116278;-64
2021/06/23 10:45:59;;;;;;;16.00;14.53;;;;;;;24.79;61.43;99716.34;532518;1088;116466;-61
2021/06/23 10:56:07;;;;;;;15.50;13.77;;;;;;;25.46;61.10;99711.65;531403;1090;116203;-63
2021/06/23 11:06:14;;;;;;;24.90;16.78;;;;;;;25.49;59.74;99727.41;531499;1089;116756;-71
2021/06/23 11:16:34;;;;;;;17.33;15.10;;;;;;;25.17;60.15;99724.20;532416;1088;116947;-71
2021/06/23 11:27:03;;;;;;;18.03;14.30;;;;;;;25.05;59.64;99726.55;530590;1089;118018;-71
2021/06/23 11:37:11;;;;;;;16.97;14.30;;;;;;;25.15;60.22;99731.60;531829;1089;117783;-71
2021/06/23 11:47:18;;;;;;;17.87;14.10;;;;;;;25.34;59.45;99727.47;532143;1089;116678;-71
2021/06/23 11:57:24;;;;;;;16.73;13.57;;;;;;;26.15;58.60;99723.56;531363;1088;116788;-69
2021/06/23 12:07:31;;;;;;;18.50;13.47;;;;;;;27.03;57.23;99712.39;532563;1088;116484;-70
2021/06/23 12:17:38;;;;;;;17.80;13.83;;;;;;;27.14;55.65;99704.53;532572;1089;116621;-70
2021/06/23 12:27:44;;;;;;;15.90;14.20;;;;;;;27.37;55.24;99687.13;532496;1090;116656;-70
2021/06/23 12:37:51;;;;;;;14.25;12.58;;;;;;;27.81;53.97;99684.03;531049;1088;116193;-77
2021/06/23 12:47:58;;;;;;;20.50;15.83;;;;;;;27.88;53.35;99681.33;531866;1089;116927;-64
2021/06/23 12:58:06;;;;;;;15.63;14.03;;;;;;;27.74;53.07;99664.33;532597;1089;116715;-71
2021/06/23 13:08:12;;;;;;;19.93;16.10;;;;;;;27.34;53.34;99675.93;532625;1090;116589;-65
2021/06/23 13:18:19;;;;;;;16.83;15.27;;;;;;;27.43;52.87;99669.30;531775;1088;116877;-69
2021/06/23 13:28:26;;;;;;;14.88;13.48;;;;;;;27.04;53.92;99679.84;528065;1089;117389;-65
2021/06/23 13:38:32;;;;;;;15.80;13.93;;;;;;;26.76;54.01;99696.11;532054;1089;116239;-62
2021/06/23 13:48:39;;;;;;;14.63;13.13;;;;;;;26.75;54.20;99699.84;514937;1090;116431;-66
2021/06/23 13:58:46;;;;;;;17.98;13.58;;;;;;;26.55;54.59;99700.63;516429;1088;116575;-65
2021/06/23 14:08:52;;;;;;;14.07;12.57;;;;;;;26.26;54.99;99708.77;515298;1090;116457;-68
2021/06/23 14:18:59;;;;;;;15.40;13.80;;;;;;;25.51;56.03;99719.16;516182;1089;116051;-66
2021/06/23 14:29:05;;;;;;;22.53;14.73;;;;;;;24.89;57.39;99716.88;516419;1089;116882;-64
2021/06/23 14:39:12;;;;;;;15.55;12.50;;;;;;;24.70;58.52;99718.28;526518;1089;116997;-66
2021/06/23 14:49:19;;;;;;;14.27;12.73;;;;;;;24.89;58.48;99724.92;516282;1089;116581;-69
2021/06/23 14:59:25;;;;;;;14.43;12.90;;;;;;;24.95;58.33;99726.02;515542;1089;116510;-67
2021/06/23 15:09:32;;;;;;;16.23;12.53;;;;;;;24.98;58.55;99737.22;517391;1089;117432;-63
2021/06/23 15:19:39;;;;;;;18.85;12.70;;;;;;;25.16;58.69;99734.11;516029;1089;117321;-62
2021/06/23 15:29:45;;;;;;;14.27;12.63;;;;;;;24.81;58.70;99733.94;529071;1089;116259;-64
2021/06/23 15:39:52;;;;;;;14.53;13.00;;;;;;;24.47;59.28;99730.81;515518;1089;116995;-64
2021/06/23 15:50:03;;;;;;;18.57;11.87;;;;;;;24.26;59.88;99741.45;517204;1089;116368;-63
2021/06/23 16:00:13;;;;;;;13.73;11.37;;;;;;;24.24;60.26;99743.47;514979;1090;116852;-63
2021/06/23 16:10:19;;;;;;;15.93;12.13;;;;;;;24.37;60.23;99745.52;531125;1089;117086;-63
2021/06/23 16:20:26;;;;;;;12.63;11.10;;;;;;;24.05;60.61;99749.19;532569;1089;116212;-64
2021/06/23 16:30:33;;;;;;;13.70;11.87;;;;;;;24.07;61.12;99743.65;531872;1090;117090;-64
2021/06/23 16:40:40;;;;;;;12.57;11.27;;;;;;;23.97;61.51;99759.13;514624;1088;20001019;-64
2021/06/23 16:50:46;;;;;;;13.33;11.97;;;;;;;23.69;62.38;99765.91;531714;1090;117130;-64
2021/06/23 17:00:53;;;;;;;12.90;11.73;;;;;;;23.46;62.36;99768.61;532002;1089;116557;-64
2021/06/23 17:11:00;;;;;;;12.43;11.30;;;;;;;23.40;62.99;99772.84;532422;1088;117077;-61
2021/06/23 17:21:07;;;;;;;11.93;10.83;;;;;;;23.15;63.21;99782.83;531588;1089;116863;-60
2021/06/23 17:31:29;;;;;;;12.63;11.33;;;;;;;23.01;63.62;99792.44;532439;1088;116376;-60
2021/06/23 17:41:36;;;;;;;14.60;11.47;;;;;;;22.86;64.10;99801.21;532457;1089;116886;-61
2021/06/23 17:51:42;;;;;;;14.03;11.57;;;;;;;22.75;64.10;99793.56;532342;1089;116881;-61
2021/06/23 18:01:49;;;;;;;12.83;11.50;;;;;;;22.85;63.71;99783.48;532402;1089;117710;-60
2021/06/23 18:11:56;;;;;;;14.10;12.67;;;;;;;22.49;64.07;99790.13;531578;1088;116587;-64
2021/06/23 18:22:04;;;;;;;12.80;11.50;;;;;;;22.07;64.77;99778.64;532174;1088;116860;-63
2021/06/23 18:32:11;;;;;;;12.05;10.70;;;;;;;21.83;65.59;99784.86;532424;1089;116178;-64
2021/06/23 18:42:22;;;;;;;11.87;10.57;;;;;;;21.56;65.84;99792.14;531676;1088;116612;-63
2021/06/23 18:52:29;;;;;;;12.83;11.57;;;;;;;21.32;66.78;99787.62;532428;1089;116961;-63
2021/06/23 19:02:35;;;;;;;13.25;11.20;;;;;;;21.06;67.42;99785.86;517027;1089;116722;-70
2021/06/23 19:12:43;;;;;;;14.13;12.60;;;;;;;20.89;68.11;99784.97;529256;1089;117030;-72
2021/06/23 19:22:49;;;;;;;12.70;10.53;;;;;;;20.73;68.32;99791.89;531322;1090;152039;-59
2021/06/23 19:32:56;;;;;;;11.33;10.13;;;;;;;20.58;69.14;99799.64;531647;1088;117656;-59
2021/06/23 19:43:07;;;;;;;16.63;9.63;;;;;;;20.56;69.09;99791.82;532411;1089;116538;-60
2021/06/23 19:53:14;;;;;;;10.93;9.83;;;;;;;20.48;69.90;99818.44;532457;1089;116778;-60
2021/06/23 20:03:20;;;;;;;14.70;11.93;;;;;;;20.41;70.00;99809.38;531470;1088;117414;-60
2021/06/23 20:13:27;;;;;;;11.07;9.93;;;;;;;20.39;70.10;99811.38;532404;1089;116936;-59
2021/06/23 20:23:33;;;;;;;12.93;10.03;;;;;;;20.42;70.48;99811.91;532266;1090;116900;-59
2021/06/23 20:33:40;;;;;;;12.23;10.83;;;;;;;20.33;70.50;99798.69;532264;1088;116398;-60
2021/06/23 20:43:47;;;;;;;15.50;11.27;;;;;;;20.14;70.61;99796.07;532398;1089;116416;-64
2021/06/23 20:53:53;;;;;;;11.37;10.27;;;;;;;19.92;71.10;99799.20;531281;1088;117023;-62
2021/06/23 21:04:03;;;;;;;13.43;12.13;;;;;;;19.76;71.33;99789.24;532475;1089;115811;-63
2021/06/23 21:14:21;;;;;;;11.93;10.80;;;;;;;19.66;72.00;99784.83;532558;1090;116775;-63
2021/06/23 21:24:31;;;;;;;15.98;11.83;;;;;;;19.59;72.07;99781.09;531669;1090;118467;-66
2021/06/23 21:34:38;;;;;;;13.17;11.90;;;;;;;19.47;71.97;99793.81;532364;1089;117790;-67
2021/06/23 21:44:44;;;;;;;12.83;10.87;;;;;;;19.25;72.47;99805.71;527538;1089;117521;-66
2021/06/23 21:54:52;;;;;;;13.07;11.77;;;;;;;19.12;72.67;99804.24;521918;1089;116792;-64
2021/06/23 22:05:02;;;;;;;14.23;12.60;;;;;;;19.06;72.92;99817.31;531773;1090;117283;-64
2021/06/23 22:15:12;;;;;;;14.37;13.00;;;;;;;19.14;73.19;99817.41;531617;1088;117169;-66
2021/06/23 22:25:21;;;;;;;13.00;10.97;;;;;;;19.23;72.90;99813.02;531456;1089;116351;-64
2021/06/23 22:35:30;;;;;;;12.03;10.93;;;;;;;19.29;73.64;99801.78;532410;1089;116583;-65
2021/06/23 22:45:39;;;;;;;12.77;11.57;;;;;;;19.42;73.35;99780.95;530466;1088;116897;-65
2021/06/23 22:55:47;;;;;;;;;;;;;;;19.64;73.89;99770.83;531302;1088;116582;-66
2021/06/23 23:05:54;;;;;;;15.60;13.05;;;;;;;19.64;73.30;99776.16;524479;1089;103380;-65
2021/06/23 23:16:01;;;;;;;14.67;13.27;;;;;;;19.71;73.86;99763.06;513672;1089;116230;-64
2021/06/23 23:26:08;;;;;;;14.53;12.57;;;;;;;19.74;73.41;99747.61;532624;1089;117477;-67
2021/06/23 23:36:14;;;;;;;15.43;13.83;;;;;;;19.57;73.65;99735.13;531853;1090;117312;-66
2021/06/23 23:46:21;;;;;;;12.80;11.47;;;;;;;19.29;74.34;99736.05;532488;1088;117219;-66
2021/06/23 23:56:28;;;;;;;13.63;12.43;;;;;;;19.10;74.33;99729.05;532136;1089;116320;-66
